Аэропорт: Национальный аэропорт Минск. Минск

ICAO: UMMS

METAR:
2018/09/23 11:00
UMMS 231100Z 24006G09MPS 200V270 9999 BKN036 14/06 Q1012 R31/CLRD// TEMPO 24010G15MPS
METAR:
2018/09/23 06:52
TAF UMMS 230509Z 2306/2406 21005G10MPS 6000 BKN003 
      TEMPO 2306/2308 1500 BR BKN005 
     FM230800 23007G12MPS 9999 BKN020 
      TEMPO 2308/2318 26010G15MPS 2500 -SHRA BKN007 BKN012CB 
      BECMG 2318/2319 20005MPS 
      TEMPO 2319/2406 1500 -RA BR BKN003